Time;durP1;ratioP1;P1;durP2;ratioP2;P2;SDS_P1;SDS_P2;PMS_P1;PMS_P2;Temp;Humidity;BMP_temperature;BMP_pressure;BME280_temperature;BME280_humidity;BME280_pressure;Samples;Min_cycle;Max_cycle;Signal;HPM_P1;HPM_P2
2023/03/24 00:00:10;;;;;;;6.78;1.80;;;12.20;99.90;;;;;;4973298;28;20046;-72
2023/03/24 00:02:40;;;;;;;5.20;1.73;;;12.20;99.90;;;;;;4967564;28;20039;-73
2023/03/24 00:05:09;;;;;;;7.60;1.85;;;12.20;99.90;;;;;;4981617;28;20046;-72
2023/03/24 00:07:38;;;;;;;3.17;1.40;;;12.30;99.90;;;;;;4975849;28;20065;-72
2023/03/24 00:10:09;;;;;;;4.85;1.98;;;12.20;99.90;;;;;;4967014;28;20050;-72
2023/03/24 00:12:37;;;;;;;3.45;1.75;;;12.30;99.90;;;;;;4972771;28;20137;-72
2023/03/24 00:15:08;;;;;;;4.05;1.75;;;12.20;99.90;;;;;;4970121;28;20479;-72
2023/03/24 00:17:35;;;;;;;5.25;1.90;;;12.20;99.90;;;;;;4946806;28;20088;-72
2023/03/24 00:20:06;;;;;;;4.93;1.92;;;12.20;99.90;;;;;;4942167;28;20039;-72
2023/03/24 00:22:33;;;;;;;6.85;1.92;;;12.20;99.90;;;;;;4950627;28;20046;-72
2023/03/24 00:25:02;;;;;;;5.15;1.77;;;12.20;99.90;;;;;;4982849;28;20057;-72
2023/03/24 00:27:29;;;;;;;4.43;1.55;;;12.20;99.90;;;;;;4989216;28;20112;-72
2023/03/24 00:29:58;;;;;;;5.55;1.90;;;12.20;99.90;;;;;;4978401;28;20047;-72
2023/03/24 00:32:24;;;;;;;4.32;1.50;;;12.20;99.90;;;;;;4958332;28;20065;-72
2023/03/24 00:34:51;;;;;;;6.15;1.70;;;12.20;99.90;;;;;;4948071;28;20136;-72
2023/03/24 00:37:17;;;;;;;3.28;1.95;;;12.10;99.90;;;;;;4961383;28;20062;-72
2023/03/24 00:39:44;;;;;;;4.90;1.70;;;12.10;99.90;;;;;;4979433;28;20074;-72
2023/03/24 00:42:10;;;;;;;4.32;1.67;;;12.10;99.90;;;;;;4978257;28;20432;-72
2023/03/24 00:44:36;;;;;;;3.35;1.35;;;12.10;99.90;;;;;;4969144;28;20050;-72
2023/03/24 00:47:02;;;;;;;4.28;1.70;;;12.10;99.90;;;;;;4961481;28;20605;-72
2023/03/24 00:49:43;;;;;;;5.60;1.88;;;12.10;99.90;;;;;;4954545;28;20050;-72
2023/03/24 00:52:20;;;;;;;5.88;2.03;;;12.10;99.90;;;;;;4956590;28;20046;-72
2023/03/24 00:54:47;;;;;;;4.63;1.60;;;12.00;99.90;;;;;;4951361;28;20038;-72
2023/03/24 00:57:14;;;;;;;2.65;1.67;;;12.00;99.90;;;;;;4963904;28;20563;-72
2023/03/24 00:59:47;;;;;;;5.28;1.88;;;12.10;99.90;;;;;;4978741;28;20055;-73
2023/03/24 01:02:20;;;;;;;7.25;2.13;;;12.10;99.90;;;;;;4990390;28;20074;-73
2023/03/24 01:04:52;;;;;;;3.08;1.48;;;12.30;99.90;;;;;;4963964;28;20464;-73
2023/03/24 01:07:20;;;;;;;6.40;2.30;;;12.30;99.90;;;;;;4955007;28;20495;-72
2023/03/24 01:09:50;;;;;;;3.70;1.92;;;12.30;99.90;;;;;;4955306;28;20463;-73
2023/03/24 01:12:18;;;;;;;4.78;1.83;;;12.30;99.90;;;;;;4956734;28;20045;-72
2023/03/24 01:14:45;;;;;;;5.50;1.90;;;12.30;99.90;;;;;;4958680;28;20082;-72
2023/03/24 01:17:11;;;;;;;5.57;2.40;;;12.20;99.90;;;;;;4970107;28;20118;-72
2023/03/24 01:19:37;;;;;;;4.80;2.13;;;12.20;99.90;;;;;;4949776;28;20519;-72
2023/03/24 01:22:02;;;;;;;4.38;2.30;;;12.20;99.90;;;;;;4963018;28;20078;-72
2023/03/24 01:24:30;;;;;;;6.68;2.58;;;12.20;99.90;;;;;;4982174;28;20050;-73
2023/03/24 01:26:55;;;;;;;4.90;2.40;;;12.10;99.90;;;;;;4987687;28;20074;-72
2023/03/24 01:29:21;;;;;;;4.40;2.20;;;12.20;99.90;;;;;;4967368;28;20472;-73
2023/03/24 01:31:47;;;;;;;9.13;2.85;;;12.10;99.90;;;;;;4954682;28;20046;-72
2023/03/24 01:34:12;;;;;;;5.75;2.33;;;12.10;99.90;;;;;;4964585;28;20055;-72
2023/03/24 01:36:38;;;;;;;5.25;2.25;;;12.10;99.90;;;;;;4942723;28;20069;-72
2023/03/24 01:39:04;;;;;;;7.10;2.80;;;12.10;99.90;;;;;;4949467;28;20046;-73
2023/03/24 01:41:35;;;;;;;4.20;2.53;;;12.10;99.90;;;;;;4984386;28;20077;-73
2023/03/24 01:44:01;;;;;;;6.05;2.60;;;12.10;99.90;;;;;;4960921;28;20043;-72
2023/03/24 01:46:28;;;;;;;6.47;2.80;;;12.00;99.90;;;;;;4960929;28;20057;-72
2023/03/24 01:48:57;;;;;;;5.25;2.65;;;12.00;99.90;;;;;;4986601;28;20050;-72
2023/03/24 01:51:33;;;;;;;4.28;2.78;;;12.00;99.90;;;;;;4975050;28;20050;-72
2023/03/24 01:54:05;;;;;;;8.55;2.63;;;12.00;99.90;;;;;;4990661;28;20065;-72
2023/03/24 01:56:33;;;;;;;5.07;2.72;;;12.10;99.90;;;;;;4926534;28;20047;-72
2023/03/24 01:59:07;;;;;;;5.88;2.63;;;12.00;99.90;;;;;;4944370;28;20059;-72
2023/03/24 02:01:33;;;;;;;5.75;2.83;;;12.10;99.90;;;;;;4933813;28;20038;-72
2023/03/24 02:04:02;;;;;;;5.55;3.28;;;12.10;99.90;;;;;;4974709;28;20116;-73
2023/03/24 02:06:28;;;;;;;5.55;3.42;;;12.10;99.90;;;;;;4948138;28;20039;-73
2023/03/24 02:08:56;;;;;;;4.65;3.03;;;12.10;99.90;;;;;;4965711;28;20051;-72
2023/03/24 02:11:25;;;;;;;6.88;3.10;;;12.10;99.90;;;;;;4938056;28;20050;-72
2023/03/24 02:13:51;;;;;;;5.10;3.15;;;12.20;99.90;;;;;;4943360;28;20532;-72
2023/03/24 02:16:20;;;;;;;5.97;2.92;;;12.30;99.90;;;;;;4957826;28;20134;-72
2023/03/24 02:19:04;;;;;;;3.63;2.72;;;12.30;99.90;;;;;;4963773;28;20051;-72
2023/03/24 02:22:00;;;;;;;6.68;2.90;;;12.30;99.90;;;;;;4980402;28;20047;-72
2023/03/24 02:24:35;;;;;;;4.70;3.03;;;12.30;99.90;;;;;;4963069;28;20043;-72
2023/03/24 02:27:41;;;;;;;5.10;3.30;;;12.30;99.90;;;;;;4986797;28;20042;-72
2023/03/24 02:30:41;;;;;;;4.43;2.70;;;12.30;99.90;;;;;;4975749;28;20739;-72
2023/03/24 02:33:39;;;;;;;6.15;2.95;;;12.30;99.90;;;;;;4962967;28;20109;-73
2023/03/24 02:36:14;;;;;;;;;;;12.40;99.90;;;;;;4977964;28;20072;-72
2023/03/24 02:38:48;;;;;;;3.90;2.83;;;12.40;99.90;;;;;;4979734;28;20028;-72
2023/03/24 02:41:35;;;;;;;5.38;3.45;;;12.40;99.90;;;;;;4979087;28;20038;-74
2023/03/24 02:44:19;;;;;;;4.72;2.92;;;12.40;99.90;;;;;;4992468;28;20046;-72
2023/03/24 02:46:46;;;;;;;5.22;2.90;;;12.40;99.90;;;;;;4955167;28;20736;-73
2023/03/24 02:49:27;;;;;;;4.95;2.70;;;12.40;99.90;;;;;;4963187;28;20166;-73
2023/03/24 02:52:12;;;;;;;4.20;2.72;;;12.40;99.90;;;;;;4985815;28;20046;-72
2023/03/24 02:54:37;;;;;;;5.80;2.70;;;12.40;99.90;;;;;;4978529;28;20082;-72
2023/03/24 02:57:06;;;;;;;4.03;2.97;;;12.30;99.90;;;;;;4982160;28;20101;-72
2023/03/24 02:59:43;;;;;;;4.97;2.83;;;12.30;99.90;;;;;;4986319;28;20042;-72
2023/03/24 03:02:15;;;;;;;4.45;2.70;;;12.40;99.90;;;;;;4966699;28;20057;-74
2023/03/24 03:04:48;;;;;;;6.00;3.13;;;12.40;99.90;;;;;;4950045;28;20042;-73
2023/03/24 03:07:15;;;;;;;4.47;3.00;;;12.40;99.90;;;;;;4944270;28;20433;-74
2023/03/24 03:09:45;;;;;;;4.70;2.90;;;12.50;99.90;;;;;;4962924;28;20072;-72
2023/03/24 03:12:11;;;;;;;4.53;2.65;;;12.40;99.90;;;;;;4969344;28;20057;-72
2023/03/24 03:14:59;;;;;;;4.70;2.72;;;12.40;99.90;;;;;;4943493;28;20043;-73
2023/03/24 03:17:29;;;;;;;5.47;3.20;;;12.40;99.90;;;;;;4962649;28;20046;-71
2023/03/24 03:20:08;;;;;;;5.30;2.55;;;12.40;99.90;;;;;;4940958;28;20043;-74
2023/03/24 03:23:04;;;;;;;4.07;2.60;;;12.50;99.90;;;;;;4967744;28;20046;-73
2023/03/24 03:25:33;;;;;;;5.47;3.00;;;12.60;99.90;;;;;;4947907;28;20043;-73
2023/03/24 03:28:00;;;;;;;3.47;2.53;;;12.50;99.90;;;;;;4972867;28;20050;-74
2023/03/24 03:30:38;;;;;;;4.53;2.80;;;12.60;99.90;;;;;;4985064;28;20042;-73
2023/03/24 03:33:24;;;;;;;3.72;2.60;;;12.60;99.90;;;;;;4972141;28;20046;-75
2023/03/24 03:35:57;;;;;;;4.38;2.50;;;12.60;99.90;;;;;;4966335;28;20054;-75
2023/03/24 03:38:46;;;;;;;5.97;2.75;;;12.60;99.90;;;;;;4987536;28;20119;-75
2023/03/24 03:41:13;;;;;;;4.43;2.30;;;12.60;99.90;;;;;;4970125;28;20110;-75
2023/03/24 03:43:39;;;;;;;5.88;2.65;;;12.60;99.90;;;;;;4966636;28;20534;-75
2023/03/24 03:46:06;;;;;;;3.90;2.70;;;12.70;99.90;;;;;;4981255;28;20053;-76
2023/03/24 03:48:32;;;;;;;6.28;2.50;;;12.70;99.90;;;;;;4952223;28;20163;-75
2023/03/24 03:50:58;;;;;;;5.10;2.30;;;12.70;99.90;;;;;;4968130;28;20471;-76
2023/03/24 03:53:29;;;;;;;6.97;3.13;;;12.70;99.90;;;;;;4951258;28;20057;-75
2023/03/24 03:55:55;;;;;;;5.55;3.10;;;12.70;99.90;;;;;;4967109;28;20181;-75
2023/03/24 03:58:22;;;;;;;4.93;2.63;;;12.70;99.90;;;;;;4955458;28;20141;-75
2023/03/24 04:00:47;;;;;;;4.38;2.67;;;12.70;99.90;;;;;;4980014;28;20548;-75
2023/03/24 04:03:30;;;;;;;7.90;2.95;;;12.70;99.90;;;;;;4980077;28;20503;-75
2023/03/24 04:06:35;;;;;;;4.03;2.35;;;12.70;99.90;;;;;;4979493;28;20154;-75
2023/03/24 04:09:23;;;;;;;4.78;3.05;;;12.70;99.90;;;;;;4955333;28;20046;-75
2023/03/24 04:12:10;;;;;;;4.18;2.80;;;12.60;99.90;;;;;;4979700;28;20550;-75
2023/03/24 04:14:57;;;;;;;7.50;3.65;;;12.60;99.90;;;;;;4978974;28;20057;-75
2023/03/24 04:17:54;;;;;;;5.10;2.90;;;12.50;99.90;;;;;;4977320;28;20045;-75
2023/03/24 04:20:49;;;;;;;8.25;3.20;;;12.40;99.90;;;;;;4948276;28;20341;-75
2023/03/24 04:23:53;;;;;;;4.80;2.60;;;12.30;99.90;;;;;;4951919;28;20133;-75
2023/03/24 04:26:41;;;;;;;5.80;3.97;;;12.30;99.90;;;;;;4970721;28;20095;-75
2023/03/24 04:29:35;;;;;;;5.85;3.40;;;12.40;99.90;;;;;;4978884;28;20542;-75
2023/03/24 04:32:07;;;;;;;6.25;3.42;;;12.40;99.90;;;;;;4983890;28;20053;-75
2023/03/24 04:34:38;;;;;;;5.78;3.15;;;12.40;99.90;;;;;;4979354;28;20206;-74
2023/03/24 04:37:15;;;;;;;5.03;3.40;;;12.40;99.90;;;;;;4982242;28;20077;-75
2023/03/24 04:39:42;;;;;;;5.65;3.47;;;12.40;99.90;;;;;;4955684;28;20082;-75
2023/03/24 04:42:21;;;;;;;4.93;3.00;;;12.40;99.90;;;;;;4963502;28;20053;-75
2023/03/24 04:44:50;;;;;;;5.03;2.97;;;12.50;99.90;;;;;;4950811;28;20046;-75
2023/03/24 04:47:19;;;;;;;;;;;12.50;99.90;;;;;;4942474;28;20387;-74
2023/03/24 04:49:45;;;;;;;5.05;3.25;;;12.50;99.90;;;;;;4978408;28;19914;-75
2023/03/24 04:52:11;;;;;;;4.63;3.50;;;12.50;99.90;;;;;;4976984;28;20184;-75
2023/03/24 04:54:36;;;;;;;5.18;3.10;;;12.50;99.90;;;;;;4975570;28;20047;-74
2023/03/24 04:57:02;;;;;;;4.32;2.85;;;12.50;99.90;;;;;;4943082;28;20051;-74
2023/03/24 04:59:30;;;;;;;6.32;3.25;;;12.50;99.90;;;;;;4955714;28;20043;-74
2023/03/24 05:01:55;;;;;;;6.32;3.03;;;12.50;99.90;;;;;;4972301;28;20035;-75
2023/03/24 05:04:27;;;;;;;4.82;2.88;;;12.60;99.90;;;;;;4974739;28;20038;-75
2023/03/24 05:06:52;;;;;;;4.45;2.90;;;12.60;99.90;;;;;;4954429;28;20089;-75
2023/03/24 05:09:22;;;;;;;6.07;2.65;;;12.60;99.90;;;;;;4982207;28;20562;-75
2023/03/24 05:11:48;;;;;;;3.50;2.60;;;12.70;99.90;;;;;;4955176;28;20050;-75
2023/03/24 05:14:14;;;;;;;3.53;2.40;;;12.70;99.90;;;;;;4986212;28;20064;-74
2023/03/24 05:16:40;;;;;;;4.40;2.78;;;12.70;99.90;;;;;;4951135;28;20077;-75
2023/03/24 05:19:06;;;;;;;5.32;2.83;;;12.70;99.90;;;;;;4999635;28;20100;-75
2023/03/24 05:21:32;;;;;;;5.40;2.47;;;12.70;99.90;;;;;;4965025;28;20098;-73
2023/03/24 05:23:58;;;;;;;4.72;2.58;;;12.70;99.90;;;;;;4947268;28;20046;-75
2023/03/24 05:26:25;;;;;;;5.22;2.30;;;12.70;99.90;;;;;;4972856;28;20050;-75
2023/03/24 05:28:51;;;;;;;4.35;2.45;;;12.70;99.90;;;;;;4955966;28;20054;-75
2023/03/24 05:31:17;;;;;;;3.83;2.45;;;12.80;99.90;;;;;;4949162;28;20051;-75
2023/03/24 05:33:45;;;;;;;4.85;2.88;;;12.80;99.90;;;;;;4965484;28;20480;-76
2023/03/24 05:36:11;;;;;;;4.40;2.80;;;12.90;99.90;;;;;;4981229;28;20116;-75
2023/03/24 05:38:37;;;;;;;4.97;2.97;;;12.90;99.90;;;;;;4967291;28;20380;-76
2023/03/24 05:41:02;;;;;;;5.72;3.10;;;12.90;99.90;;;;;;4971200;28;20047;-75
2023/03/24 05:43:28;;;;;;;5.85;3.28;;;13.00;99.90;;;;;;4955274;28;20076;-75
2023/03/24 05:45:55;;;;;;;5.57;3.47;;;12.90;99.90;;;;;;4988881;28;20043;-75
2023/03/24 05:48:21;;;;;;;5.25;3.88;;;13.00;99.90;;;;;;4992411;28;20120;-75
2023/03/24 05:50:47;;;;;;;4.90;3.10;;;13.00;99.90;;;;;;4971235;28;20101;-75
2023/03/24 05:53:13;;;;;;;4.85;3.03;;;12.90;99.90;;;;;;4963338;28;20046;-75
2023/03/24 05:55:40;;;;;;;7.22;3.92;;;12.90;99.90;;;;;;4959012;28;20046;-75
2023/03/24 05:58:06;;;;;;;4.67;3.43;;;12.90;99.90;;;;;;4964941;28;20050;-75
2023/03/24 06:00:32;;;;;;;5.57;3.55;;;13.00;99.90;;;;;;4980587;28;20054;-75
2023/03/24 06:02:58;;;;;;;7.00;3.90;;;13.00;99.90;;;;;;4980858;28;20061;-75
2023/03/24 06:05:25;;;;;;;7.07;3.72;;;13.00;99.90;;;;;;4983940;28;20042;-75
2023/03/24 06:07:50;;;;;;;5.93;3.53;;;13.10;99.90;;;;;;4952059;28;20062;-75
2023/03/24 06:10:17;;;;;;;7.28;4.10;;;13.00;99.90;;;;;;4980133;28;20058;-76
2023/03/24 06:12:43;;;;;;;5.80;3.40;;;13.10;99.90;;;;;;4951800;28;20065;-75
2023/03/24 06:15:09;;;;;;;4.85;3.42;;;13.20;99.90;;;;;;4952408;28;20060;-76
2023/03/24 06:17:36;;;;;;;6.00;4.53;;;13.10;99.90;;;;;;4960566;28;20074;-75
2023/03/24 06:20:12;;;;;;;7.03;3.70;;;13.20;99.90;;;;;;4955986;28;20055;-75
2023/03/24 06:22:38;;;;;;;6.25;3.72;;;13.20;99.90;;;;;;4984120;28;20066;-75
2023/03/24 06:25:04;;;;;;;7.32;4.32;;;13.20;99.90;;;;;;4969447;28;20081;-75
2023/03/24 06:27:34;;;;;;;5.80;3.33;;;13.30;99.90;;;;;;4991068;28;20054;-75
2023/03/24 06:30:00;;;;;;;6.10;3.67;;;13.30;99.90;;;;;;4990526;28;20058;-76
2023/03/24 06:32:26;;;;;;;7.68;4.47;;;13.30;99.90;;;;;;4974608;28;21125;-76
2023/03/24 06:34:52;;;;;;;8.60;3.88;;;13.30;99.90;;;;;;4966525;28;20818;-75
2023/03/24 06:37:18;;;;;;;5.30;3.85;;;13.30;99.90;;;;;;4968710;28;20042;-75
2023/03/24 06:39:44;;;;;;;7.35;4.43;;;13.30;99.90;;;;;;4966903;28;20057;-76
2023/03/24 06:42:10;;;;;;;6.50;3.92;;;13.30;99.90;;;;;;4973065;28;20435;-75
2023/03/24 06:44:36;;;;;;;5.70;3.88;;;13.30;99.90;;;;;;4981495;28;20113;-75
2023/03/24 06:47:03;;;;;;;6.13;3.90;;;13.30;99.90;;;;;;4954903;28;20432;-76
2023/03/24 06:49:28;;;;;;;5.20;3.78;;;13.40;99.90;;;;;;4970339;28;20506;-75
2023/03/24 06:51:54;;;;;;;7.60;3.72;;;13.40;99.90;;;;;;4953250;28;20077;-75
2023/03/24 06:54:21;;;;;;;7.15;3.78;;;13.40;99.90;;;;;;4964594;28;20046;-76
2023/03/24 06:56:47;;;;;;;6.90;3.75;;;13.40;99.90;;;;;;4951292;28;20130;-76
2023/03/24 06:59:13;;;;;;;5.82;3.88;;;13.40;99.90;;;;;;4986925;28;20085;-75
2023/03/24 07:01:38;;;;;;;5.88;3.70;;;13.30;99.90;;;;;;4973828;28;20043;-76
2023/03/24 07:04:05;;;;;;;5.25;3.70;;;13.30;99.90;;;;;;4949910;28;20543;-75
2023/03/24 07:06:32;;;;;;;6.32;3.50;;;13.30;99.90;;;;;;4967481;28;20360;-75
2023/03/24 07:08:58;;;;;;;5.43;3.67;;;13.30;99.90;;;;;;4954836;28;20070;-75
2023/03/24 07:11:24;;;;;;;7.32;3.95;;;13.30;99.90;;;;;;4969226;28;20042;-75
2023/03/24 07:13:50;;;;;;;6.90;4.18;;;13.30;99.90;;;;;;4949993;28;20102;-76
2023/03/24 07:16:16;;;;;;;6.07;4.03;;;13.20;99.90;;;;;;4955067;28;20078;-75
2023/03/24 07:18:41;;;;;;;13.63;6.90;;;13.10;99.90;;;;;;4980604;28;20046;-76
2023/03/24 07:21:07;;;;;;;13.15;8.65;;;13.00;99.90;;;;;;4949033;28;20137;-75
2023/03/24 07:23:33;;;;;;;14.73;8.70;;;12.90;99.90;;;;;;4967834;28;20042;-75
2023/03/24 07:25:59;;;;;;;13.77;8.73;;;12.90;99.90;;;;;;4965551;28;20054;-75
2023/03/24 07:28:25;;;;;;;14.73;9.30;;;12.90;99.90;;;;;;4973544;28;20388;-75
2023/03/24 07:30:51;;;;;;;11.98;8.00;;;12.90;99.90;;;;;;4950062;28;20046;-75
2023/03/24 07:33:17;;;;;;;10.50;5.82;;;12.90;99.90;;;;;;4963977;28;20051;-76
2023/03/24 07:35:42;;;;;;;7.38;4.93;;;13.00;99.90;;;;;;4983659;28;20797;-75
2023/03/24 07:38:09;;;;;;;8.30;4.82;;;13.00;99.90;;;;;;4970129;28;20054;-76
2023/03/24 07:40:35;;;;;;;8.07;4.82;;;13.00;99.90;;;;;;4952497;28;20518;-75
2023/03/24 07:43:03;;;;;;;8.45;4.88;;;13.00;99.90;;;;;;4960155;28;20039;-76
2023/03/24 07:45:28;;;;;;;6.22;3.88;;;13.00;99.90;;;;;;4988323;28;20041;-75
2023/03/24 07:47:56;;;;;;;6.07;3.72;;;13.00;99.90;;;;;;4978308;28;20128;-76
2023/03/24 07:50:22;;;;;;;9.77;4.05;;;13.10;99.90;;;;;;4980143;28;20337;-75
2023/03/24 07:52:48;;;;;;;6.07;3.78;;;13.10;99.90;;;;;;4966723;28;20145;-76
2023/03/24 07:55:14;;;;;;;5.30;3.55;;;13.00;99.90;;;;;;4974170;28;20053;-76
2023/03/24 07:57:49;;;;;;;7.90;3.40;;;13.00;99.90;;;;;;4968562;28;20085;-75
2023/03/24 08:00:34;;;;;;;4.95;3.15;;;13.00;99.90;;;;;;4970405;28;20041;-73
2023/03/24 08:03:00;;;;;;;5.88;3.25;;;13.00;99.90;;;;;;4952346;28;20039;-74
2023/03/24 08:05:27;;;;;;;5.45;3.10;;;13.00;99.90;;;;;;4963874;28;20154;-75
2023/03/24 08:07:52;;;;;;;5.07;2.70;;;13.10;99.90;;;;;;4963206;28;20060;-75
2023/03/24 08:10:19;;;;;;;5.43;2.47;;;13.20;99.90;;;;;;4980793;28;20043;-75
2023/03/24 08:12:46;;;;;;;3.15;2.35;;;13.20;99.90;;;;;;4958946;28;20042;-74
2023/03/24 08:15:12;;;;;;;4.97;2.25;;;13.20;99.90;;;;;;4969397;28;20047;-74
2023/03/24 08:17:38;;;;;;;4.75;2.17;;;13.20;99.90;;;;;;4948887;28;20046;-74
2023/03/24 08:20:07;;;;;;;4.13;2.38;;;13.30;99.90;;;;;;4981387;28;20142;-74
2023/03/24 08:22:33;;;;;;;4.18;2.45;;;13.30;99.90;;;;;;4970366;28;20042;-74
2023/03/24 08:24:58;;;;;;;5.22;2.38;;;13.30;99.90;;;;;;4966605;28;20053;-75
2023/03/24 08:27:24;;;;;;;3.17;2.20;;;13.30;99.90;;;;;;4964891;28;20043;-75
2023/03/24 08:29:50;;;;;;;2.97;2.00;;;13.20;99.90;;;;;;4981700;28;20039;-74
2023/03/24 08:32:17;;;;;;;3.17;2.30;;;13.20;99.90;;;;;;4962856;28;20043;-74
2023/03/24 08:34:42;;;;;;;3.53;2.38;;;13.20;99.90;;;;;;4955814;28;20069;-75
2023/03/24 08:37:08;;;;;;;3.80;2.38;;;13.20;99.90;;;;;;4969532;28;20108;-75
2023/03/24 08:39:35;;;;;;;3.85;2.83;;;13.20;99.90;;;;;;4992184;28;20132;-76
2023/03/24 08:42:01;;;;;;;5.50;2.47;;;13.20;99.90;;;;;;4988565;28;20047;-74
2023/03/24 08:44:27;;;;;;;2.78;1.83;;;13.20;99.90;;;;;;4971347;28;20114;-75
2023/03/24 08:46:53;;;;;;;4.00;2.25;;;13.00;99.90;;;;;;4960752;28;20049;-75
2023/03/24 08:49:19;;;;;;;5.35;2.00;;;12.90;99.90;;;;;;4976187;28;20090;-75
2023/03/24 08:51:45;;;;;;;5.43;2.05;;;12.80;99.90;;;;;;4984544;28;20054;-75
2023/03/24 08:54:11;;;;;;;4.13;2.08;;;12.80;99.90;;;;;;4978235;28;20046;-75
2023/03/24 08:56:38;;;;;;;4.00;1.90;;;12.80;99.90;;;;;;4956676;28;20376;-75
2023/03/24 08:59:04;;;;;;;2.95;1.80;;;12.80;99.90;;;;;;4955735;28;20578;-75
2023/03/24 09:01:34;;;;;;;2.77;1.30;;;12.80;99.90;;;;;;4953582;28;20449;-76
2023/03/24 09:04:01;;;;;;;;;;;12.80;99.90;;;;;;4978906;28;20581;-75
2023/03/24 09:06:27;;;;;;;3.03;1.45;;;12.70;99.90;;;;;;4987594;28;19968;-74
2023/03/24 09:08:53;;;;;;;4.20;1.40;;;12.80;99.90;;;;;;4970247;28;20397;-74
2023/03/24 09:11:20;;;;;;;3.13;1.20;;;12.90;99.90;;;;;;4970435;28;20058;-75
2023/03/24 09:13:46;;;;;;;3.05;1.25;;;13.10;99.90;;;;;;4978472;28;20054;-74
2023/03/24 09:16:12;;;;;;;2.85;1.10;;;13.30;99.90;;;;;;4966842;28;20113;-75
2023/03/24 09:18:38;;;;;;;2.08;0.80;;;13.50;99.90;;;;;;4956950;28;20050;-75
2023/03/24 09:21:05;;;;;;;2.95;0.90;;;13.50;99.90;;;;;;4982874;28;20495;-75
2023/03/24 09:23:30;;;;;;;5.32;1.40;;;13.40;99.90;;;;;;4990076;28;20747;-73
2023/03/24 09:25:56;;;;;;;3.75;1.00;;;13.40;99.90;;;;;;4990050;28;20125;-73
2023/03/24 09:28:22;;;;;;;5.05;1.20;;;13.50;99.90;;;;;;4952497;28;20526;-73
2023/03/24 09:30:48;;;;;;;2.63;1.05;;;13.60;99.90;;;;;;4940507;28;20051;-73
2023/03/24 09:33:14;;;;;;;2.95;1.02;;;13.80;99.90;;;;;;4968106;28;20082;-74
2023/03/24 09:35:40;;;;;;;4.90;0.90;;;13.90;99.90;;;;;;4953544;28;20120;-73
2023/03/24 09:38:06;;;;;;;3.17;0.98;;;14.00;99.90;;;;;;4954546;28;20142;-73
2023/03/24 09:40:37;;;;;;;3.17;1.30;;;14.10;99.90;;;;;;4950847;28;20128;-73
2023/03/24 09:43:22;;;;;;;3.10;0.90;;;14.10;99.90;;;;;;4964597;28;20085;-73
2023/03/24 09:45:53;;;;;;;4.20;1.10;;;14.00;99.90;;;;;;4972204;28;20134;-73
2023/03/24 09:48:34;;;;;;;3.53;0.90;;;14.10;99.90;;;;;;4952008;28;20382;-74
2023/03/24 09:51:20;;;;;;;2.85;1.00;;;14.10;99.90;;;;;;4976847;28;20100;-74
2023/03/24 09:54:07;;;;;;;6.80;1.20;;;13.90;99.90;;;;;;4968746;28;20088;-73
2023/03/24 09:56:34;;;;;;;2.38;1.05;;;13.80;99.90;;;;;;4989034;28;20050;-74
2023/03/24 09:58:59;;;;;;;4.60;1.20;;;13.80;99.90;;;;;;4944249;28;20055;-73
2023/03/24 10:01:25;;;;;;;4.35;1.05;;;13.60;99.90;;;;;;4979870;28;20046;-73
2023/03/24 10:04:03;;;;;;;2.05;0.85;;;13.50;99.90;;;;;;4966316;28;20052;-73
2023/03/24 10:06:38;;;;;;;2.10;0.90;;;13.50;99.90;;;;;;4970475;28;20129;-73
2023/03/24 10:09:28;;;;;;;2.80;1.13;;;13.60;99.90;;;;;;4945271;28;20489;-73
2023/03/24 10:12:26;;;;;;;4.72;1.45;;;13.50;99.90;;;;;;4987781;28;20046;-73
2023/03/24 10:15:01;;;;;;;;;;;13.30;99.90;;;;;;4952856;28;20073;-75
2023/03/24 10:17:39;;;;;;;3.22;1.40;;;13.30;99.90;;;;;;5003033;28;19921;-75
2023/03/24 10:20:26;;;;;;;4.45;1.20;;;13.40;99.90;;;;;;4982102;28;20470;-75
2023/03/24 10:22:59;;;;;;;7.73;1.90;;;13.40;99.90;;;;;;4987014;28;20117;-77
2023/03/24 10:25:54;;;;;;;2.95;1.20;;;13.40;99.90;;;;;;4988689;28;20043;-76
2023/03/24 10:28:22;;;;;;;6.35;1.67;;;13.40;99.90;;;;;;4992049;28;20046;-76
2023/03/24 10:30:49;;;;;;;5.50;1.40;;;13.40;99.90;;;;;;4982212;28;20078;-75
2023/03/24 10:33:16;;;;;;;7.47;1.88;;;13.30;99.90;;;;;;4960897;28;20086;-77
2023/03/24 10:36:05;;;;;;;6.45;1.55;;;13.40;99.90;;;;;;4965142;28;20453;-75
2023/03/24 10:38:31;;;;;;;6.47;1.70;;;13.50;99.90;;;;;;4942448;28;20721;-75
2023/03/24 10:40:56;;;;;;;5.38;2.00;;;13.50;99.90;;;;;;4954570;28;20066;-75
2023/03/24 10:43:22;;;;;;;5.93;1.58;;;13.50;99.90;;;;;;4954433;28;20035;-76
2023/03/24 10:45:50;;;;;;;7.50;1.67;;;13.70;99.90;;;;;;4942208;28;20042;-75
2023/03/24 10:48:39;;;;;;;8.15;2.33;;;13.80;99.90;;;;;;4952877;28;20535;-75
2023/03/24 10:51:05;;;;;;;5.75;1.77;;;14.00;99.90;;;;;;4983537;28;20391;-76
2023/03/24 10:53:32;;;;;;;7.53;2.20;;;13.80;99.90;;;;;;4948019;28;20078;-75
2023/03/24 10:55:58;;;;;;;6.82;2.15;;;13.70;99.90;;;;;;4984806;28;20053;-76
2023/03/24 10:58:31;;;;;;;7.53;2.38;;;13.80;99.90;;;;;;4957980;28;20085;-76
2023/03/24 11:00:57;;;;;;;9.48;2.25;;;13.80;99.90;;;;;;4949339;28;20650;-75
2023/03/24 11:03:30;;;;;;;4.47;2.15;;;14.20;99.90;;;;;;4974486;28;20391;-74
2023/03/24 11:06:00;;;;;;;5.97;2.15;;;14.10;99.90;;;;;;4986864;28;20042;-76
2023/03/24 11:08:39;;;;;;;7.65;2.42;;;14.10;99.90;;;;;;4952364;28;20428;-75
2023/03/24 11:11:27;;;;;;;10.07;2.35;;;14.30;99.90;;;;;;4963226;28;20117;-75
2023/03/24 11:13:56;;;;;;;6.63;2.05;;;14.70;99.90;;;;;;4941327;28;20042;-75
2023/03/24 11:16:25;;;;;;;;;;;14.50;99.90;;;;;;4994170;28;20042;-76
2023/03/24 11:19:00;;;;;;;12.63;2.55;;;14.30;99.60;;;;;;5003866;28;20009;-76
2023/03/24 11:21:30;;;;;;;9.75;2.65;;;14.40;99.90;;;;;;4964665;28;20038;-75
2023/03/24 11:23:58;;;;;;;9.65;3.13;;;14.10;99.90;;;;;;4951351;28;20209;-76
2023/03/24 11:26:34;;;;;;;6.75;2.20;;;14.20;99.90;;;;;;4966905;28;20045;-76
2023/03/24 11:29:02;;;;;;;7.35;2.33;;;14.40;99.90;;;;;;4950267;28;20046;-76
2023/03/24 11:31:33;;;;;;;11.95;3.03;;;14.30;99.90;;;;;;4960465;28;20157;-76
2023/03/24 11:34:01;;;;;;;8.80;2.55;;;14.40;99.90;;;;;;4950986;28;20136;-74
2023/03/24 11:36:32;;;;;;;10.48;2.47;;;14.60;99.30;;;;;;4979432;28;20061;-74
2023/03/24 11:39:17;;;;;;;12.70;3.25;;;14.60;97.30;;;;;;4989226;28;20061;-74
2023/03/24 11:42:06;;;;;;;7.50;2.25;;;14.60;97.80;;;;;;4981537;28;20149;-74
2023/03/24 11:44:38;;;;;;;8.15;2.00;;;14.50;98.80;;;;;;4970404;28;20049;-74
2023/03/24 11:47:33;;;;;;;9.95;2.10;;;14.50;98.80;;;;;;4981419;28;20344;-75
2023/03/24 11:50:07;;;;;;;9.13;2.22;;;14.50;97.10;;;;;;4953017;28;20039;-74
2023/03/24 11:52:54;;;;;;;13.30;2.42;;;14.80;97.20;;;;;;4981620;28;20046;-75
2023/03/24 11:55:46;;;;;;;7.22;2.38;;;15.20;94.70;;;;;;4970537;28;20050;-75
2023/03/24 11:58:27;;;;;;;7.10;2.30;;;15.40;93.20;;;;;;4981811;28;20057;-75
2023/03/24 12:01:26;;;;;;;7.43;2.30;;;15.70;92.40;;;;;;4984570;28;20486;-75
2023/03/24 12:03:52;;;;;;;8.80;2.58;;;15.40;93.10;;;;;;4972939;28;20046;-76
2023/03/24 12:06:33;;;;;;;6.55;2.20;;;15.10;93.30;;;;;;4982624;28;20441;-75
2023/03/24 12:09:16;;;;;;;7.63;1.88;;;14.90;92.90;;;;;;4986291;28;20057;-76
2023/03/24 12:12:09;;;;;;;6.72;2.22;;;15.00;93.00;;;;;;4981588;28;20053;-76
2023/03/24 12:15:11;;;;;;;8.23;2.67;;;15.00;93.60;;;;;;4945477;28;20050;-76
2023/03/24 12:17:41;;;;;;;7.85;2.13;;;14.80;93.20;;;;;;4972000;28;20054;-76
2023/03/24 12:20:35;;;;;;;10.52;2.28;;;14.90;93.80;;;;;;4962715;28;20516;-76
2023/03/24 12:23:07;;;;;;;6.10;2.35;;;15.10;92.80;;;;;;4971007;28;20201;-75
2023/03/24 12:26:01;;;;;;;6.68;2.63;;;15.30;91.50;;;;;;4964192;28;20104;-76
2023/03/24 12:28:55;;;;;;;9.90;2.08;;;15.70;90.80;;;;;;4986261;28;20043;-75
2023/03/24 12:31:53;;;;;;;5.07;1.40;;;15.80;84.40;;;;;;4981114;28;20046;-76
2023/03/24 12:34:38;;;;;;;6.70;1.92;;;16.00;82.10;;;;;;4987189;28;20752;-76
2023/03/24 12:37:14;;;;;;;4.63;1.52;;;16.00;77.50;;;;;;4979540;28;20070;-75
2023/03/24 12:39:58;;;;;;;4.50;1.40;;;15.90;77.50;;;;;;4981355;28;20063;-76
2023/03/24 12:42:24;;;;;;;6.32;2.05;;;15.70;77.00;;;;;;4992057;28;20112;-75
2023/03/24 12:45:10;;;;;;;8.25;2.13;;;16.20;76.10;;;;;;4960587;28;20042;-76
2023/03/24 12:47:54;;;;;;;5.63;1.70;;;16.30;74.40;;;;;;4985533;28;20133;-75
2023/03/24 12:50:44;;;;;;;9.57;1.90;;;15.60;77.30;;;;;;4973997;28;20050;-76
2023/03/24 12:53:25;;;;;;;6.22;1.75;;;15.50;78.80;;;;;;4963596;28;20141;-75
2023/03/24 12:55:53;;;;;;;6.35;2.20;;;15.30;80.60;;;;;;4971719;28;20043;-75
2023/03/24 12:58:28;;;;;;;6.22;2.20;;;15.10;84.20;;;;;;4939918;28;20157;-75
2023/03/24 13:01:02;;;;;;;6.47;2.10;;;14.90;83.20;;;;;;4977484;28;20463;-75
2023/03/24 13:03:41;;;;;;;6.95;2.30;;;14.70;84.60;;;;;;4962462;28;20050;-75
2023/03/24 13:06:35;;;;;;;6.80;1.95;;;14.70;87.00;;;;;;4948700;28;20038;-76
2023/03/24 13:09:28;;;;;;;7.28;2.33;;;14.70;87.10;;;;;;4980768;28;20134;-75
2023/03/24 13:12:24;;;;;;;4.75;2.00;;;14.60;89.50;;;;;;4980848;28;20055;-75